Destinations Burgas Airport

Burgas Airport (LBBG / BOJ)

Flights to Burgas Airport

Flight number From ETE Dispatch
SPY-2486 EGPH Edinburgh Airport 03:50

Flights from Burgas Airport

Flight number To ETE Dispatch
SPY-2487 EGPH Edinburgh Airport 03:50
About

Burgas Airport facts

Burgas Airport is located in Bourgas at an elevation of 41.1 meters or 135 feet.

Currently, Speedy Airlines serves 2 flights to and from Burgas Airport.

Detailed airport info

Route map

Weather

Current weather

METAR

METAR

Metar data retrieved Sunday, 21 July 2024 at 19:25 UTC

LBBG 211900Z AUTO 12007KT 9999 NCD 27/21 Q1008 NOSIG
Wind Temperature
7 kt 27c